sensor_id;sensor_type;location;lat;lon;timestamp;P1;durP1;ratioP1;P2;durP2;ratioP2
10339;SDS011;5215;48.676;9.022;2022-12-05T00:02:22;6.03;;;2.97;;
10339;SDS011;5215;48.676;9.022;2022-12-05T00:04:48;5.37;;;3.63;;
10339;SDS011;5215;48.676;9.022;2022-12-05T00:07:14;8.60;;;3.30;;
10339;SDS011;5215;48.676;9.022;2022-12-05T00:09:41;6.20;;;3.20;;
10339;SDS011;5215;48.676;9.022;2022-12-05T00:12:08;8.93;;;3.97;;
10339;SDS011;5215;48.676;9.022;2022-12-05T00:14:35;6.97;;;3.27;;
10339;SDS011;5215;48.676;9.022;2022-12-05T00:17:01;6.40;;;3.57;;
10339;SDS011;5215;48.676;9.022;2022-12-05T00:19:27;7.00;;;3.37;;
10339;SDS011;5215;48.676;9.022;2022-12-05T00:21:53;9.80;;;3.33;;
10339;SDS011;5215;48.676;9.022;2022-12-05T00:24:21;3.67;;;2.90;;
10339;SDS011;5215;48.676;9.022;2022-12-05T00:26:48;4.20;;;2.87;;
10339;SDS011;5215;48.676;9.022;2022-12-05T00:29:15;4.67;;;3.37;;
10339;SDS011;5215;48.676;9.022;2022-12-05T00:31:42;4.70;;;3.67;;
10339;SDS011;5215;48.676;9.022;2022-12-05T00:34:08;5.50;;;3.40;;
10339;SDS011;5215;48.676;9.022;2022-12-05T00:36:35;5.83;;;3.10;;
10339;SDS011;5215;48.676;9.022;2022-12-05T00:39:03;8.63;;;3.43;;
10339;SDS011;5215;48.676;9.022;2022-12-05T00:41:29;8.67;;;4.00;;
10339;SDS011;5215;48.676;9.022;2022-12-05T00:43:57;5.67;;;3.13;;
10339;SDS011;5215;48.676;9.022;2022-12-05T00:46:26;5.57;;;3.33;;
10339;SDS011;5215;48.676;9.022;2022-12-05T00:48:53;4.87;;;2.23;;
10339;SDS011;5215;48.676;9.022;2022-12-05T00:51:22;5.53;;;3.10;;
10339;SDS011;5215;48.676;9.022;2022-12-05T00:53:51;6.03;;;2.93;;
10339;SDS011;5215;48.676;9.022;2022-12-05T00:56:18;4.57;;;2.60;;
10339;SDS011;5215;48.676;9.022;2022-12-05T00:58:45;6.03;;;2.77;;
10339;SDS011;5215;48.676;9.022;2022-12-05T01:01:12;3.63;;;2.03;;
10339;SDS011;5215;48.676;9.022;2022-12-05T01:03:41;5.20;;;2.60;;
10339;SDS011;5215;48.676;9.022;2022-12-05T01:06:08;7.23;;;2.77;;
10339;SDS011;5215;48.676;9.022;2022-12-05T01:08:35;5.20;;;3.03;;
10339;SDS011;5215;48.676;9.022;2022-12-05T01:11:02;4.80;;;3.37;;
10339;SDS011;5215;48.676;9.022;2022-12-05T01:13:29;3.83;;;2.73;;
10339;SDS011;5215;48.676;9.022;2022-12-05T01:15:56;5.80;;;3.17;;
10339;SDS011;5215;48.676;9.022;2022-12-05T01:18:23;3.50;;;2.23;;
10339;SDS011;5215;48.676;9.022;2022-12-05T01:20:50;6.13;;;2.60;;
10339;SDS011;5215;48.676;9.022;2022-12-05T01:23:17;4.67;;;2.50;;
10339;SDS011;5215;48.676;9.022;2022-12-05T01:25:45;4.30;;;3.17;;
10339;SDS011;5215;48.676;9.022;2022-12-05T01:28:12;5.33;;;2.60;;
10339;SDS011;5215;48.676;9.022;2022-12-05T01:30:39;4.37;;;3.00;;
10339;SDS011;5215;48.676;9.022;2022-12-05T01:33:06;5.17;;;3.07;;
10339;SDS011;5215;48.676;9.022;2022-12-05T01:35:32;5.33;;;3.50;;
10339;SDS011;5215;48.676;9.022;2022-12-05T01:38:00;5.77;;;3.27;;
10339;SDS011;5215;48.676;9.022;2022-12-05T01:40:27;4.63;;;2.83;;
10339;SDS011;5215;48.676;9.022;2022-12-05T01:42:53;6.50;;;3.00;;
10339;SDS011;5215;48.676;9.022;2022-12-05T01:45:21;6.37;;;3.53;;
10339;SDS011;5215;48.676;9.022;2022-12-05T01:47:49;5.00;;;2.87;;
10339;SDS011;5215;48.676;9.022;2022-12-05T01:50:15;4.80;;;2.40;;
10339;SDS011;5215;48.676;9.022;2022-12-05T01:52:42;7.10;;;3.10;;
10339;SDS011;5215;48.676;9.022;2022-12-05T01:55:11;6.97;;;3.37;;
10339;SDS011;5215;48.676;9.022;2022-12-05T01:57:38;5.57;;;3.27;;
10339;SDS011;5215;48.676;9.022;2022-12-05T02:00:07;6.50;;;3.30;;
10339;SDS011;5215;48.676;9.022;2022-12-05T02:02:34;8.33;;;4.20;;
10339;SDS011;5215;48.676;9.022;2022-12-05T02:05:01;7.27;;;3.77;;
10339;SDS011;5215;48.676;9.022;2022-12-05T02:07:28;5.27;;;2.93;;
10339;SDS011;5215;48.676;9.022;2022-12-05T02:09:55;5.63;;;3.00;;
10339;SDS011;5215;48.676;9.022;2022-12-05T02:12:23;7.47;;;3.40;;
10339;SDS011;5215;48.676;9.022;2022-12-05T02:14:52;5.57;;;2.87;;
10339;SDS011;5215;48.676;9.022;2022-12-05T02:17:21;4.87;;;3.47;;
10339;SDS011;5215;48.676;9.022;2022-12-05T02:19:51;5.70;;;3.93;;
10339;SDS011;5215;48.676;9.022;2022-12-05T02:22:35;5.13;;;3.60;;
10339;SDS011;5215;48.676;9.022;2022-12-05T02:25:14;5.70;;;3.37;;
10339;SDS011;5215;48.676;9.022;2022-12-05T02:30:28;6.83;;;3.40;;
10339;SDS011;5215;48.676;9.022;2022-12-05T02:33:02;6.23;;;3.10;;
10339;SDS011;5215;48.676;9.022;2022-12-05T02:35:33;6.10;;;3.30;;
10339;SDS011;5215;48.676;9.022;2022-12-05T02:38:04;5.20;;;3.50;;
10339;SDS011;5215;48.676;9.022;2022-12-05T02:40:34;8.37;;;4.27;;
10339;SDS011;5215;48.676;9.022;2022-12-05T02:43:05;7.87;;;4.07;;
10339;SDS011;5215;48.676;9.022;2022-12-05T02:45:34;8.40;;;4.23;;
10339;SDS011;5215;48.676;9.022;2022-12-05T02:48:03;6.07;;;3.23;;
10339;SDS011;5215;48.676;9.022;2022-12-05T02:50:31;11.97;;;4.23;;
10339;SDS011;5215;48.676;9.022;2022-12-05T02:52:58;6.60;;;3.57;;
10339;SDS011;5215;48.676;9.022;2022-12-05T02:55:26;8.90;;;3.53;;
10339;SDS011;5215;48.676;9.022;2022-12-05T02:57:54;5.70;;;3.53;;
10339;SDS011;5215;48.676;9.022;2022-12-05T03:00:22;6.83;;;3.93;;
10339;SDS011;5215;48.676;9.022;2022-12-05T03:02:51;9.30;;;4.47;;
10339;SDS011;5215;48.676;9.022;2022-12-05T03:05:20;5.63;;;3.33;;
10339;SDS011;5215;48.676;9.022;2022-12-05T03:07:49;6.17;;;3.30;;
10339;SDS011;5215;48.676;9.022;2022-12-05T03:10:18;5.97;;;3.07;;
10339;SDS011;5215;48.676;9.022;2022-12-05T03:12:47;3.60;;;2.67;;
10339;SDS011;5215;48.676;9.022;2022-12-05T03:15:16;4.90;;;2.90;;
10339;SDS011;5215;48.676;9.022;2022-12-05T03:17:43;7.93;;;3.27;;
10339;SDS011;5215;48.676;9.022;2022-12-05T03:20:14;4.87;;;3.00;;
10339;SDS011;5215;48.676;9.022;2022-12-05T03:22:43;5.93;;;3.03;;
10339;SDS011;5215;48.676;9.022;2022-12-05T03:25:11;3.67;;;2.53;;
10339;SDS011;5215;48.676;9.022;2022-12-05T03:27:39;4.20;;;2.97;;
10339;SDS011;5215;48.676;9.022;2022-12-05T03:30:08;5.97;;;3.07;;
10339;SDS011;5215;48.676;9.022;2022-12-05T03:32:36;5.43;;;3.13;;
10339;SDS011;5215;48.676;9.022;2022-12-05T03:35:06;6.07;;;3.23;;
10339;SDS011;5215;48.676;9.022;2022-12-05T03:37:37;6.73;;;3.47;;
10339;SDS011;5215;48.676;9.022;2022-12-05T03:40:08;5.77;;;3.23;;
10339;SDS011;5215;48.676;9.022;2022-12-05T03:42:37;4.63;;;2.43;;
10339;SDS011;5215;48.676;9.022;2022-12-05T03:45:05;5.07;;;3.30;;
10339;SDS011;5215;48.676;9.022;2022-12-05T03:47:35;3.63;;;2.33;;
10339;SDS011;5215;48.676;9.022;2022-12-05T03:50:04;2.13;;;1.93;;
10339;SDS011;5215;48.676;9.022;2022-12-05T03:52:33;4.70;;;2.23;;
10339;SDS011;5215;48.676;9.022;2022-12-05T03:55:04;5.50;;;3.07;;
10339;SDS011;5215;48.676;9.022;2022-12-05T03:57:33;5.63;;;3.57;;
10339;SDS011;5215;48.676;9.022;2022-12-05T04:00:02;6.83;;;3.40;;
10339;SDS011;5215;48.676;9.022;2022-12-05T04:02:30;4.33;;;2.73;;
10339;SDS011;5215;48.676;9.022;2022-12-05T04:04:59;5.17;;;3.03;;
10339;SDS011;5215;48.676;9.022;2022-12-05T04:07:26;3.37;;;2.47;;
10339;SDS011;5215;48.676;9.022;2022-12-05T04:09:55;4.97;;;2.97;;
10339;SDS011;5215;48.676;9.022;2022-12-05T04:12:25;5.47;;;2.40;;
10339;SDS011;5215;48.676;9.022;2022-12-05T04:14:53;4.87;;;2.90;;
10339;SDS011;5215;48.676;9.022;2022-12-05T04:17:23;3.67;;;2.33;;
10339;SDS011;5215;48.676;9.022;2022-12-05T04:19:51;5.50;;;2.70;;
10339;SDS011;5215;48.676;9.022;2022-12-05T04:22:36;5.07;;;2.70;;
10339;SDS011;5215;48.676;9.022;2022-12-05T04:25:03;2.87;;;2.30;;
10339;SDS011;5215;48.676;9.022;2022-12-05T04:27:49;4.00;;;2.87;;
10339;SDS011;5215;48.676;9.022;2022-12-05T04:30:18;5.00;;;2.93;;
10339;SDS011;5215;48.676;9.022;2022-12-05T04:32:47;5.30;;;2.53;;
10339;SDS011;5215;48.676;9.022;2022-12-05T04:35:15;3.73;;;2.37;;
10339;SDS011;5215;48.676;9.022;2022-12-05T04:37:43;2.73;;;2.13;;
10339;SDS011;5215;48.676;9.022;2022-12-05T04:40:11;4.60;;;2.60;;
10339;SDS011;5215;48.676;9.022;2022-12-05T04:42:39;3.93;;;2.33;;
10339;SDS011;5215;48.676;9.022;2022-12-05T04:45:09;5.00;;;2.93;;
10339;SDS011;5215;48.676;9.022;2022-12-05T04:47:38;5.77;;;3.63;;
10339;SDS011;5215;48.676;9.022;2022-12-05T04:50:06;6.37;;;2.60;;
10339;SDS011;5215;48.676;9.022;2022-12-05T04:52:33;3.80;;;2.83;;
10339;SDS011;5215;48.676;9.022;2022-12-05T04:55:01;3.57;;;2.50;;
10339;SDS011;5215;48.676;9.022;2022-12-05T04:57:30;2.83;;;2.20;;
10339;SDS011;5215;48.676;9.022;2022-12-05T04:59:58;3.30;;;1.73;;
10339;SDS011;5215;48.676;9.022;2022-12-05T05:02:26;2.70;;;1.47;;
10339;SDS011;5215;48.676;9.022;2022-12-05T05:04:54;3.57;;;1.50;;
10339;SDS011;5215;48.676;9.022;2022-12-05T05:07:21;3.17;;;1.63;;
10339;SDS011;5215;48.676;9.022;2022-12-05T05:09:48;2.87;;;2.07;;
10339;SDS011;5215;48.676;9.022;2022-12-05T05:12:14;4.60;;;2.57;;
10339;SDS011;5215;48.676;9.022;2022-12-05T05:14:40;4.93;;;2.53;;
10339;SDS011;5215;48.676;9.022;2022-12-05T05:17:07;3.97;;;2.20;;
10339;SDS011;5215;48.676;9.022;2022-12-05T05:19:34;4.27;;;2.07;;
10339;SDS011;5215;48.676;9.022;2022-12-05T05:22:01;3.37;;;2.30;;
10339;SDS011;5215;48.676;9.022;2022-12-05T05:24:27;3.07;;;2.37;;
10339;SDS011;5215;48.676;9.022;2022-12-05T05:26:53;2.87;;;2.00;;
10339;SDS011;5215;48.676;9.022;2022-12-05T05:29:20;4.47;;;2.53;;
10339;SDS011;5215;48.676;9.022;2022-12-05T05:31:46;4.07;;;2.13;;
10339;SDS011;5215;48.676;9.022;2022-12-05T05:34:12;2.00;;;1.70;;
10339;SDS011;5215;48.676;9.022;2022-12-05T05:36:41;2.53;;;2.10;;
10339;SDS011;5215;48.676;9.022;2022-12-05T05:39:10;2.87;;;2.27;;
10339;SDS011;5215;48.676;9.022;2022-12-05T05:41:37;2.90;;;2.20;;
10339;SDS011;5215;48.676;9.022;2022-12-05T05:44:03;1.87;;;1.77;;
10339;SDS011;5215;48.676;9.022;2022-12-05T05:46:30;3.30;;;2.10;;
10339;SDS011;5215;48.676;9.022;2022-12-05T05:48:57;4.80;;;2.10;;
10339;SDS011;5215;48.676;9.022;2022-12-05T05:51:23;2.77;;;1.87;;
10339;SDS011;5215;48.676;9.022;2022-12-05T05:53:53;2.30;;;1.90;;
10339;SDS011;5215;48.676;9.022;2022-12-05T05:56:20;2.97;;;2.30;;
10339;SDS011;5215;48.676;9.022;2022-12-05T05:58:46;6.40;;;1.93;;
10339;SDS011;5215;48.676;9.022;2022-12-05T06:01:13;2.40;;;1.00;;
10339;SDS011;5215;48.676;9.022;2022-12-05T06:03:40;1.73;;;1.43;;
10339;SDS011;5215;48.676;9.022;2022-12-05T06:06:08;2.30;;;1.60;;
10339;SDS011;5215;48.676;9.022;2022-12-05T06:08:35;2.00;;;1.90;;
10339;SDS011;5215;48.676;9.022;2022-12-05T06:11:04;0.87;;;0.80;;
10339;SDS011;5215;48.676;9.022;2022-12-05T06:13:31;0.73;;;0.73;;
10339;SDS011;5215;48.676;9.022;2022-12-05T06:15:57;0.60;;;0.60;;
10339;SDS011;5215;48.676;9.022;2022-12-05T06:18:24;0.80;;;0.80;;
10339;SDS011;5215;48.676;9.022;2022-12-05T06:20:51;0.90;;;0.87;;
10339;SDS011;5215;48.676;9.022;2022-12-05T06:23:17;1.17;;;0.97;;
10339;SDS011;5215;48.676;9.022;2022-12-05T06:25:45;1.60;;;1.17;;
10339;SDS011;5215;48.676;9.022;2022-12-05T06:28:13;1.53;;;1.33;;
10339;SDS011;5215;48.676;9.022;2022-12-05T06:30:40;0.70;;;0.53;;
10339;SDS011;5215;48.676;9.022;2022-12-05T06:33:06;1.87;;;1.00;;
10339;SDS011;5215;48.676;9.022;2022-12-05T06:35:32;1.73;;;1.33;;
10339;SDS011;5215;48.676;9.022;2022-12-05T06:37:59;1.47;;;1.37;;
10339;SDS011;5215;48.676;9.022;2022-12-05T06:40:25;1.23;;;1.20;;
10339;SDS011;5215;48.676;9.022;2022-12-05T06:42:51;1.20;;;1.10;;
10339;SDS011;5215;48.676;9.022;2022-12-05T06:45:19;1.60;;;1.50;;
10339;SDS011;5215;48.676;9.022;2022-12-05T06:47:45;2.23;;;1.63;;
10339;SDS011;5215;48.676;9.022;2022-12-05T06:50:12;2.10;;;1.20;;
10339;SDS011;5215;48.676;9.022;2022-12-05T06:52:38;0.80;;;0.70;;
10339;SDS011;5215;48.676;9.022;2022-12-05T06:55:05;1.20;;;1.17;;
10339;SDS011;5215;48.676;9.022;2022-12-05T06:57:31;1.73;;;1.10;;
10339;SDS011;5215;48.676;9.022;2022-12-05T06:59:57;1.07;;;0.80;;
10339;SDS011;5215;48.676;9.022;2022-12-05T07:02:50;3.30;;;2.07;;
10339;SDS011;5215;48.676;9.022;2022-12-05T07:05:15;2.70;;;2.07;;
10339;SDS011;5215;48.676;9.022;2022-12-05T07:07:41;4.33;;;2.80;;
10339;SDS011;5215;48.676;9.022;2022-12-05T07:10:08;3.40;;;2.10;;
10339;SDS011;5215;48.676;9.022;2022-12-05T07:12:34;2.67;;;1.90;;
10339;SDS011;5215;48.676;9.022;2022-12-05T07:15:01;4.03;;;2.57;;
10339;SDS011;5215;48.676;9.022;2022-12-05T07:17:27;2.67;;;2.23;;
10339;SDS011;5215;48.676;9.022;2022-12-05T07:19:55;4.37;;;2.43;;
10339;SDS011;5215;48.676;9.022;2022-12-05T07:22:21;3.47;;;2.33;;
10339;SDS011;5215;48.676;9.022;2022-12-05T07:24:49;4.03;;;2.27;;
10339;SDS011;5215;48.676;9.022;2022-12-05T07:27:16;3.63;;;2.40;;
10339;SDS011;5215;48.676;9.022;2022-12-05T07:29:42;3.70;;;2.13;;
10339;SDS011;5215;48.676;9.022;2022-12-05T07:32:08;3.90;;;2.17;;
10339;SDS011;5215;48.676;9.022;2022-12-05T07:34:35;2.63;;;1.43;;
10339;SDS011;5215;48.676;9.022;2022-12-05T07:37:04;2.70;;;1.57;;
10339;SDS011;5215;48.676;9.022;2022-12-05T07:39:30;1.97;;;1.53;;
10339;SDS011;5215;48.676;9.022;2022-12-05T07:41:56;1.63;;;0.90;;
10339;SDS011;5215;48.676;9.022;2022-12-05T07:44:23;0.53;;;0.53;;
10339;SDS011;5215;48.676;9.022;2022-12-05T07:46:49;1.90;;;0.57;;
10339;SDS011;5215;48.676;9.022;2022-12-05T07:49:15;0.60;;;0.57;;
10339;SDS011;5215;48.676;9.022;2022-12-05T07:51:42;1.13;;;1.03;;
10339;SDS011;5215;48.676;9.022;2022-12-05T07:54:09;0.63;;;0.30;;
10339;SDS011;5215;48.676;9.022;2022-12-05T07:56:36;1.57;;;1.33;;
10339;SDS011;5215;48.676;9.022;2022-12-05T07:59:02;1.53;;;1.20;;
10339;SDS011;5215;48.676;9.022;2022-12-05T08:01:29;1.10;;;1.00;;
10339;SDS011;5215;48.676;9.022;2022-12-05T08:03:55;0.97;;;0.63;;
10339;SDS011;5215;48.676;9.022;2022-12-05T08:06:23;1.13;;;1.13;;
10339;SDS011;5215;48.676;9.022;2022-12-05T08:08:49;1.33;;;1.33;;
10339;SDS011;5215;48.676;9.022;2022-12-05T08:11:18;1.47;;;0.60;;
10339;SDS011;5215;48.676;9.022;2022-12-05T08:13:44;1.17;;;1.07;;
10339;SDS011;5215;48.676;9.022;2022-12-05T08:16:11;1.60;;;0.83;;
10339;SDS011;5215;48.676;9.022;2022-12-05T08:18:38;3.63;;;1.07;;
10339;SDS011;5215;48.676;9.022;2022-12-05T08:21:05;1.20;;;0.90;;
10339;SDS011;5215;48.676;9.022;2022-12-05T08:23:31;0.83;;;0.83;;
10339;SDS011;5215;48.676;9.022;2022-12-05T08:26:00;1.87;;;1.53;;
10339;SDS011;5215;48.676;9.022;2022-12-05T08:28:28;1.63;;;1.53;;
10339;SDS011;5215;48.676;9.022;2022-12-05T08:30:54;1.53;;;0.90;;
10339;SDS011;5215;48.676;9.022;2022-12-05T08:33:20;3.83;;;1.00;;
10339;SDS011;5215;48.676;9.022;2022-12-05T08:35:47;0.43;;;0.43;;
10339;SDS011;5215;48.676;9.022;2022-12-05T08:38:13;1.40;;;0.90;;
10339;SDS011;5215;48.676;9.022;2022-12-05T08:40:39;1.43;;;1.03;;
10339;SDS011;5215;48.676;9.022;2022-12-05T08:43:06;6.87;;;1.50;;
10339;SDS011;5215;48.676;9.022;2022-12-05T08:45:33;2.80;;;2.13;;
10339;SDS011;5215;48.676;9.022;2022-12-05T08:48:00;0.70;;;0.70;;
10339;SDS011;5215;48.676;9.022;2022-12-05T08:50:26;1.00;;;1.00;;
10339;SDS011;5215;48.676;9.022;2022-12-05T08:52:52;1.30;;;1.27;;
10339;SDS011;5215;48.676;9.022;2022-12-05T08:55:19;0.57;;;0.57;;
10339;SDS011;5215;48.676;9.022;2022-12-05T08:57:45;1.00;;;0.63;;
10339;SDS011;5215;48.676;9.022;2022-12-05T09:00:12;0.83;;;0.80;;
10339;SDS011;5215;48.676;9.022;2022-12-05T09:02:40;1.37;;;1.27;;
10339;SDS011;5215;48.676;9.022;2022-12-05T09:05:07;0.53;;;0.53;;
10339;SDS011;5215;48.676;9.022;2022-12-05T09:07:33;2.30;;;1.23;;
10339;SDS011;5215;48.676;9.022;2022-12-05T09:10:00;1.87;;;0.70;;
10339;SDS011;5215;48.676;9.022;2022-12-05T09:12:26;0.40;;;0.40;;
10339;SDS011;5215;48.676;9.022;2022-12-05T09:14:52;0.40;;;0.40;;
10339;SDS011;5215;48.676;9.022;2022-12-05T09:17:18;0.50;;;0.33;;
10339;SDS011;5215;48.676;9.022;2022-12-05T09:19:49;1.27;;;1.17;;
10339;SDS011;5215;48.676;9.022;2022-12-05T09:22:15;0.80;;;0.80;;
10339;SDS011;5215;48.676;9.022;2022-12-05T09:24:42;3.13;;;0.90;;
10339;SDS011;5215;48.676;9.022;2022-12-05T09:27:08;3.63;;;1.27;;
10339;SDS011;5215;48.676;9.022;2022-12-05T09:29:34;0.40;;;0.40;;
10339;SDS011;5215;48.676;9.022;2022-12-05T09:32:01;1.00;;;0.93;;
10339;SDS011;5215;48.676;9.022;2022-12-05T09:34:28;1.53;;;1.23;;
10339;SDS011;5215;48.676;9.022;2022-12-05T09:36:56;1.20;;;0.47;;
10339;SDS011;5215;48.676;9.022;2022-12-05T09:39:24;1.33;;;1.23;;
10339;SDS011;5215;48.676;9.022;2022-12-05T09:42:00;1.13;;;0.70;;
10339;SDS011;5215;48.676;9.022;2022-12-05T09:44:39;0.60;;;0.60;;
10339;SDS011;5215;48.676;9.022;2022-12-05T09:47:07;0.43;;;0.43;;
10339;SDS011;5215;48.676;9.022;2022-12-05T09:49:36;3.63;;;1.50;;
10339;SDS011;5215;48.676;9.022;2022-12-05T09:52:08;2.77;;;1.87;;
10339;SDS011;5215;48.676;9.022;2022-12-05T09:54:36;2.90;;;2.27;;
10339;SDS011;5215;48.676;9.022;2022-12-05T09:57:02;1.43;;;1.33;;
10339;SDS011;5215;48.676;9.022;2022-12-05T09:59:30;2.73;;;2.10;;
10339;SDS011;5215;48.676;9.022;2022-12-05T10:01:56;2.67;;;2.43;;
10339;SDS011;5215;48.676;9.022;2022-12-05T10:04:35;0.70;;;0.70;;
10339;SDS011;5215;48.676;9.022;2022-12-05T10:07:08;1.77;;;0.70;;
10339;SDS011;5215;48.676;9.022;2022-12-05T10:09:44;1.43;;;1.33;;
10339;SDS011;5215;48.676;9.022;2022-12-05T10:12:14;0.97;;;0.97;;
10339;SDS011;5215;48.676;9.022;2022-12-05T10:14:45;0.90;;;0.83;;
10339;SDS011;5215;48.676;9.022;2022-12-05T10:17:15;4.13;;;2.13;;
10339;SDS011;5215;48.676;9.022;2022-12-05T10:19:44;1.10;;;1.00;;
10339;SDS011;5215;48.676;9.022;2022-12-05T10:22:14;1.90;;;0.90;;
10339;SDS011;5215;48.676;9.022;2022-12-05T10:24:42;1.03;;;1.03;;
10339;SDS011;5215;48.676;9.022;2022-12-05T10:27:11;1.70;;;1.60;;
10339;SDS011;5215;48.676;9.022;2022-12-05T10:29:42;6.20;;;3.90;;
10339;SDS011;5215;48.676;9.022;2022-12-05T10:32:10;6.13;;;0.70;;
10339;SDS011;5215;48.676;9.022;2022-12-05T10:34:38;0.63;;;0.63;;
10339;SDS011;5215;48.676;9.022;2022-12-05T10:37:09;1.87;;;1.27;;
10339;SDS011;5215;48.676;9.022;2022-12-05T10:39:37;3.30;;;1.87;;
10339;SDS011;5215;48.676;9.022;2022-12-05T10:42:04;0.47;;;0.47;;
10339;SDS011;5215;48.676;9.022;2022-12-05T10:44:31;0.90;;;0.90;;
10339;SDS011;5215;48.676;9.022;2022-12-05T10:46:58;1.13;;;1.13;;
10339;SDS011;5215;48.676;9.022;2022-12-05T10:49:25;1.17;;;0.43;;
10339;SDS011;5215;48.676;9.022;2022-12-05T10:51:52;1.77;;;1.67;;
10339;SDS011;5215;48.676;9.022;2022-12-05T10:54:19;1.00;;;0.73;;
10339;SDS011;5215;48.676;9.022;2022-12-05T10:56:49;0.90;;;0.80;;
10339;SDS011;5215;48.676;9.022;2022-12-05T10:59:16;4.53;;;1.27;;
10339;SDS011;5215;48.676;9.022;2022-12-05T11:01:43;0.30;;;0.30;;
10339;SDS011;5215;48.676;9.022;2022-12-05T11:04:17;0.43;;;0.43;;
10339;SDS011;5215;48.676;9.022;2022-12-05T11:06:48;1.80;;;1.10;;
10339;SDS011;5215;48.676;9.022;2022-12-05T11:09:16;0.40;;;0.40;;
10339;SDS011;5215;48.676;9.022;2022-12-05T11:11:44;1.63;;;1.20;;
10339;SDS011;5215;48.676;9.022;2022-12-05T11:14:24;0.80;;;0.80;;
10339;SDS011;5215;48.676;9.022;2022-12-05T11:16:52;0.87;;;0.70;;
10339;SDS011;5215;48.676;9.022;2022-12-05T11:19:22;0.83;;;0.60;;
10339;SDS011;5215;48.676;9.022;2022-12-05T11:21:50;0.50;;;0.50;;
10339;SDS011;5215;48.676;9.022;2022-12-05T11:24:20;0.70;;;0.60;;
10339;SDS011;5215;48.676;9.022;2022-12-05T11:26:47;1.03;;;1.00;;
10339;SDS011;5215;48.676;9.022;2022-12-05T11:29:27;1.60;;;1.27;;
10339;SDS011;5215;48.676;9.022;2022-12-05T11:31:53;6.23;;;2.70;;
10339;SDS011;5215;48.676;9.022;2022-12-05T11:34:21;1.77;;;1.35;;
10339;SDS011;5215;48.676;9.022;2022-12-05T11:36:51;0.65;;;0.65;;
10339;SDS011;5215;48.676;9.022;2022-12-05T11:39:19;5.20;;;1.17;;
10339;SDS011;5215;48.676;9.022;2022-12-05T11:44:41;0.30;;;0.30;;
10339;SDS011;5215;48.676;9.022;2022-12-05T11:47:13;0.70;;;0.70;;
10339;SDS011;5215;48.676;9.022;2022-12-05T11:49:56;2.30;;;0.90;;
10339;SDS011;5215;48.676;9.022;2022-12-05T11:52:28;0.60;;;0.60;;
10339;SDS011;5215;48.676;9.022;2022-12-05T11:55:00;0.77;;;0.77;;
10339;SDS011;5215;48.676;9.022;2022-12-05T11:57:32;0.90;;;0.90;;
10339;SDS011;5215;48.676;9.022;2022-12-05T12:05:33;0.20;;;0.20;;
10339;SDS011;5215;48.676;9.022;2022-12-05T12:08:09;1.17;;;1.07;;
10339;SDS011;5215;48.676;9.022;2022-12-05T12:10:41;0.10;;;0.10;;
10339;SDS011;5215;48.676;9.022;2022-12-05T12:13:17;1.47;;;0.77;;
10339;SDS011;5215;48.676;9.022;2022-12-05T12:15:50;0.73;;;0.73;;
10339;SDS011;5215;48.676;9.022;2022-12-05T12:18:23;0.60;;;0.60;;
10339;SDS011;5215;48.676;9.022;2022-12-05T12:20:57;1.07;;;0.80;;
10339;SDS011;5215;48.676;9.022;2022-12-05T12:23:29;0.95;;;0.85;;
10339;SDS011;5215;48.676;9.022;2022-12-05T12:26:07;0.53;;;0.50;;
10339;SDS011;5215;48.676;9.022;2022-12-05T12:28:37;0.23;;;0.23;;
10339;SDS011;5215;48.676;9.022;2022-12-05T12:31:07;1.98;;;1.20;;
10339;SDS011;5215;48.676;9.022;2022-12-05T12:33:39;1.38;;;1.15;;
10339;SDS011;5215;48.676;9.022;2022-12-05T12:36:11;1.17;;;1.15;;
10339;SDS011;5215;48.676;9.022;2022-12-05T12:38:44;1.58;;;0.88;;
10339;SDS011;5215;48.676;9.022;2022-12-05T12:41:16;0.15;;;0.15;;
10339;SDS011;5215;48.676;9.022;2022-12-05T12:43:52;0.22;;;0.22;;
10339;SDS011;5215;48.676;9.022;2022-12-05T12:46:31;0.73;;;0.73;;
10339;SDS011;5215;48.676;9.022;2022-12-05T12:49:05;1.13;;;0.52;;
10339;SDS011;5215;48.676;9.022;2022-12-05T12:51:35;0.63;;;0.63;;
10339;SDS011;5215;48.676;9.022;2022-12-05T12:54:10;1.30;;;1.20;;
10339;SDS011;5215;48.676;9.022;2022-12-05T12:56:39;0.50;;;0.50;;
10339;SDS011;5215;48.676;9.022;2022-12-05T12:59:12;0.47;;;0.30;;
10339;SDS011;5215;48.676;9.022;2022-12-05T13:01:42;0.22;;;0.22;;
10339;SDS011;5215;48.676;9.022;2022-12-05T13:04:12;0.60;;;0.57;;
10339;SDS011;5215;48.676;9.022;2022-12-05T13:06:42;0.60;;;0.60;;
10339;SDS011;5215;48.676;9.022;2022-12-05T13:09:12;0.35;;;0.35;;
10339;SDS011;5215;48.676;9.022;2022-12-05T13:11:41;2.70;;;0.80;;
10339;SDS011;5215;48.676;9.022;2022-12-05T13:14:09;1.23;;;1.17;;
10339;SDS011;5215;48.676;9.022;2022-12-05T13:16:38;0.50;;;0.50;;
10339;SDS011;5215;48.676;9.022;2022-12-05T13:19:05;2.10;;;0.70;;
10339;SDS011;5215;48.676;9.022;2022-12-05T13:21:32;5.35;;;2.95;;
10339;SDS011;5215;48.676;9.022;2022-12-05T13:24:00;1.83;;;1.73;;
10339;SDS011;5215;48.676;9.022;2022-12-05T13:26:27;0.40;;;0.40;;
10339;SDS011;5215;48.676;9.022;2022-12-05T13:28:54;1.97;;;1.77;;
10339;SDS011;5215;48.676;9.022;2022-12-05T13:31:33;3.17;;;1.97;;
10339;SDS011;5215;48.676;9.022;2022-12-05T13:33:59;4.55;;;2.83;;
10339;SDS011;5215;48.676;9.022;2022-12-05T13:36:26;1.50;;;0.93;;
10339;SDS011;5215;48.676;9.022;2022-12-05T13:39:17;3.55;;;2.92;;
10339;SDS011;5215;48.676;9.022;2022-12-05T13:42:01;0.87;;;0.70;;
10339;SDS011;5215;48.676;9.022;2022-12-05T13:44:40;0.30;;;0.30;;
10339;SDS011;5215;48.676;9.022;2022-12-05T13:47:18;3.70;;;2.10;;
10339;SDS011;5215;48.676;9.022;2022-12-05T13:49:46;1.17;;;0.73;;
10339;SDS011;5215;48.676;9.022;2022-12-05T13:52:15;3.20;;;1.75;;
10339;SDS011;5215;48.676;9.022;2022-12-05T13:54:44;0.40;;;0.40;;
10339;SDS011;5215;48.676;9.022;2022-12-05T14:00:19;1.70;;;0.30;;
10339;SDS011;5215;48.676;9.022;2022-12-05T14:02:50;0.70;;;0.70;;
10339;SDS011;5215;48.676;9.022;2022-12-05T14:13:41;1.40;;;0.60;;
10339;SDS011;5215;48.676;9.022;2022-12-05T14:18:56;0.20;;;0.20;;
10339;SDS011;5215;48.676;9.022;2022-12-05T14:21:26;0.37;;;0.37;;
10339;SDS011;5215;48.676;9.022;2022-12-05T14:24:01;0.30;;;0.30;;
10339;SDS011;5215;48.676;9.022;2022-12-05T14:26:36;0.20;;;0.20;;
10339;SDS011;5215;48.676;9.022;2022-12-05T14:31:57;1.03;;;0.30;;
10339;SDS011;5215;48.676;9.022;2022-12-05T14:34:25;1.90;;;0.40;;
10339;SDS011;5215;48.676;9.022;2022-12-05T14:36:53;2.53;;;1.70;;
10339;SDS011;5215;48.676;9.022;2022-12-05T14:39:21;0.97;;;0.87;;
10339;SDS011;5215;48.676;9.022;2022-12-05T14:41:54;1.00;;;0.83;;
10339;SDS011;5215;48.676;9.022;2022-12-05T14:44:21;0.30;;;0.30;;
10339;SDS011;5215;48.676;9.022;2022-12-05T14:46:47;5.07;;;3.40;;
10339;SDS011;5215;48.676;9.022;2022-12-05T14:49:34;1.17;;;0.97;;
10339;SDS011;5215;48.676;9.022;2022-12-05T14:52:01;1.50;;;0.87;;
10339;SDS011;5215;48.676;9.022;2022-12-05T14:54:33;1.47;;;1.03;;
10339;SDS011;5215;48.676;9.022;2022-12-05T14:57:01;1.23;;;0.97;;
10339;SDS011;5215;48.676;9.022;2022-12-05T14:59:29;1.03;;;1.03;;
10339;SDS011;5215;48.676;9.022;2022-12-05T15:01:57;2.13;;;1.90;;
10339;SDS011;5215;48.676;9.022;2022-12-05T15:04:27;1.23;;;1.13;;
10339;SDS011;5215;48.676;9.022;2022-12-05T15:06:58;2.77;;;0.67;;
10339;SDS011;5215;48.676;9.022;2022-12-05T15:09:28;3.90;;;1.73;;
10339;SDS011;5215;48.676;9.022;2022-12-05T15:11:55;1.23;;;1.13;;
10339;SDS011;5215;48.676;9.022;2022-12-05T15:14:22;1.10;;;1.10;;
10339;SDS011;5215;48.676;9.022;2022-12-05T15:16:51;0.70;;;0.70;;
10339;SDS011;5215;48.676;9.022;2022-12-05T15:19:22;1.70;;;1.10;;
10339;SDS011;5215;48.676;9.022;2022-12-05T15:21:50;0.70;;;0.70;;
10339;SDS011;5215;48.676;9.022;2022-12-05T15:24:21;1.87;;;1.77;;
10339;SDS011;5215;48.676;9.022;2022-12-05T15:26:48;0.70;;;0.70;;
10339;SDS011;5215;48.676;9.022;2022-12-05T15:29:16;0.43;;;0.43;;
10339;SDS011;5215;48.676;9.022;2022-12-05T15:31:48;2.57;;;2.37;;
10339;SDS011;5215;48.676;9.022;2022-12-05T15:34:16;3.27;;;2.97;;
10339;SDS011;5215;48.676;9.022;2022-12-05T15:36:44;1.10;;;0.67;;
10339;SDS011;5215;48.676;9.022;2022-12-05T15:39:16;0.60;;;0.50;;